Pagrindinis puslapis
METAR-TAF:

METAR-TAF

Oro uostai :

Moldė, Norvegija

platuma: 62-45N, ilguma: 007-16E, Aukštis: 0 m

Dabartinis oras

Ataskaita buvo paskelbta 36 minutes, ne 05:50 UTC
Vėjas 10 kt iš Vakarų
Temperatūra 14°C
Drėgmė 88%
Slėgis 1019 hPa
Matomumas 10 km arba daugiau
Išsisklaidę debesys ne aukštis 1500 ft
Su prošvaistėmis ne aukštis 2500 ft
Liūtis kaimynystėje

METAR: ENML 110550Z 27010KT 9999 VCSH SCT015 BKN025 14/12 Q1019

Laikas: 08:26 (06:26 UTC)

Prognozė

Ataskaita buvo paskelbta 1 valandą ir 26 minutes, ne 05:00 UTC
Prognozė galioja nuo 11 metu 06 UTC su 11 metu 15 UTC
Vėjas 15 kt iš Vakarų
Matomumas 10 km arba daugiau
Išsisklaidę debesys ne aukštis 1500 ft
Su prošvaistėmis ne aukštis 2500 ft
Tikimybė 30% :
Laikinai
nuo 11 metu 06 UTC su 11 metu 08 UTC
Vėjas 15 kt iš Vakarų/Pietvakarių su gūsio iki 28 kt
Laikinai
nuo 11 metu 06 UTC su 11 metu 15 UTC
Matomumas: 4000 m
Su prošvaistėmis ne aukštis 1200 ft
lietus, dulksna

TAF: ENML 110500Z 1106/1115 26015KT 9999 SCT015 BKN025 PROB30 TEMPO 1106/1108 25015G28KT TEMPO 1106/1115 4000 RADZ BKN012

Orai ataskaitas ir orų prognozės (METAR, TAF).

turimą stotys yra geltonos ir raudonos taškus žemėlapyje.

Perkelti pele per norėdami pamatyti stoties vardą.

Tada spustelėkite, norėdami matyti oro stebėjimo ir prognozės.

Norėdami pakeisti žemėlapį: spustelėkite ant žalios mygtukų su juodo kryžiaus žemyn,; žalią mygtuką su brūkšneliu, jei norite nutolinti; arba žalių rodyklių gretimoms žemėlapius.


METAR-TAF: